createdAt,value
2018-05-12T00:04:19.276Z,6.47
2018-05-12T00:09:22.159Z,8.47
2018-05-12T00:14:25.188Z,6.13
2018-05-12T00:19:28.117Z,5.70
2018-05-12T00:24:31.106Z,6.03
2018-05-12T00:29:33.970Z,7.70
2018-05-12T00:34:36.811Z,6.10
2018-05-12T00:39:39.656Z,5.23
2018-05-12T00:44:42.700Z,7.73
2018-05-12T00:49:45.903Z,10.07
2018-05-12T00:54:48.751Z,5.00
2018-05-12T00:59:51.626Z,4.77
2018-05-12T01:04:54.489Z,5.50
2018-05-12T01:09:57.383Z,8.63
2018-05-12T01:15:00.909Z,7.63
2018-05-12T01:20:05.258Z,9.43
2018-05-12T01:25:08.392Z,5.33
2018-05-12T01:30:11.257Z,4.47
2018-05-12T01:35:14.097Z,4.57
2018-05-12T01:40:17.041Z,8.10
2018-05-12T01:45:20.078Z,4.27
2018-05-12T01:50:23.687Z,4.50
2018-05-12T01:55:26.554Z,4.30
2018-05-12T02:00:29.463Z,5.33
2018-05-12T02:05:32.527Z,4.23
2018-05-12T02:10:35.387Z,3.90
2018-05-12T02:15:38.389Z,4.57
2018-05-12T02:20:41.566Z,5.10
2018-05-12T02:25:44.436Z,7.93
2018-05-12T02:30:47.552Z,5.00
2018-05-12T02:35:50.405Z,4.30
2018-05-12T02:40:53.253Z,5.30
2018-05-12T02:45:56.462Z,5.00
2018-05-12T02:50:59.301Z,4.13
2018-05-12T02:56:02.466Z,4.20
2018-05-12T03:01:05.344Z,5.77
2018-05-12T03:06:08.440Z,4.67
2018-05-12T03:11:11.317Z,3.90
2018-05-12T03:16:14.333Z,4.20
2018-05-12T03:21:17.225Z,3.90
2018-05-12T03:26:20.656Z,3.37
2018-05-12T03:31:23.512Z,3.60
2018-05-12T03:36:26.881Z,5.83
2018-05-12T03:41:30.148Z,3.80
2018-05-12T03:46:33.337Z,4.00
2018-05-12T03:51:36.215Z,3.60
2018-05-12T03:56:39.365Z,3.60
2018-05-12T04:01:42.268Z,4.00
2018-05-12T04:06:56.280Z,3.20
2018-05-12T04:12:34.944Z,2.80
2018-05-12T04:17:37.882Z,3.47
2018-05-12T04:22:40.756Z,3.07
2018-05-12T04:27:43.602Z,4.43
2018-05-12T04:32:47.089Z,3.10
2018-05-12T04:37:49.972Z,3.43
2018-05-12T04:42:52.807Z,5.20
2018-05-12T04:47:55.757Z,5.10
2018-05-12T04:52:59.206Z,2.57
2018-05-12T04:58:02.069Z,4.10
2018-05-12T05:03:05.524Z,6.77
2018-05-12T05:08:08.448Z,4.33
2018-05-12T05:13:11.277Z,6.53
2018-05-12T05:18:14.149Z,4.73
2018-05-12T05:23:17.286Z,6.10
2018-05-12T05:28:20.137Z,6.90
2018-05-12T05:33:23.012Z,10.83
2018-05-12T05:38:25.917Z,9.77
2018-05-12T05:43:28.797Z,5.43
2018-05-12T05:48:31.697Z,10.60
2018-05-12T05:53:34.849Z,7.83
2018-05-12T05:58:37.988Z,3.43
2018-05-12T06:03:41.181Z,9.23
2018-05-12T06:08:44.017Z,5.77
2018-05-12T06:13:46.880Z,4.73
2018-05-12T06:18:50.067Z,6.63
2018-05-12T06:23:53.174Z,7.20
2018-05-12T06:28:56.041Z,6.10
2018-05-12T06:33:59.135Z,8.93
2018-05-12T06:39:01.966Z,7.17
2018-05-12T06:44:04.832Z,6.70
2018-05-12T06:49:07.704Z,8.53
2018-05-12T06:54:10.840Z,10.20
2018-05-12T06:59:13.693Z,7.97
2018-05-12T07:04:16.708Z,10.30
2018-05-12T07:09:19.864Z,9.37
2018-05-12T07:14:22.854Z,7.47
2018-05-12T07:19:25.830Z,8.23
2018-05-12T07:24:28.650Z,5.77
2018-05-12T07:29:31.494Z,9.77
2018-05-12T07:34:35.152Z,8.50
2018-05-12T07:39:38.021Z,8.10
2018-05-12T07:44:41.206Z,6.47
2018-05-12T07:49:44.261Z,8.70
2018-05-12T07:54:47.126Z,7.17
2018-05-12T07:59:50.005Z,8.10
2018-05-12T08:04:53.287Z,6.60
2018-05-12T08:09:56.177Z,4.20
2018-05-12T08:14:59.380Z,5.00
2018-05-12T08:20:02.412Z,7.00
2018-05-12T08:25:05.555Z,7.17
2018-05-12T08:30:08.461Z,6.13
2018-05-12T08:35:11.585Z,7.20
2018-05-12T08:40:14.604Z,8.53
2018-05-12T08:45:18.104Z,6.27
2018-05-12T08:50:37.086Z,7.33
2018-05-12T08:55:40.978Z,9.60
2018-05-12T09:00:43.935Z,6.00
2018-05-12T09:05:47.383Z,9.60
2018-05-12T09:10:50.525Z,9.10
2018-05-12T09:15:54.511Z,6.17
2018-05-12T09:20:58.065Z,8.67
2018-05-12T09:26:01.323Z,6.83
2018-05-12T09:31:04.652Z,7.80
2018-05-12T09:36:08.036Z,7.37
2018-05-12T09:41:10.948Z,8.17
2018-05-12T09:46:17.101Z,7.07
2018-05-12T09:51:20.461Z,6.93
2018-05-12T09:56:23.485Z,9.13
2018-05-12T10:01:27.502Z,7.90
2018-05-12T10:06:30.581Z,7.53
2018-05-12T10:11:33.499Z,9.30
2018-05-12T10:16:37.363Z,6.27
2018-05-12T10:21:41.287Z,5.47
2018-05-12T10:26:44.398Z,4.60
2018-05-12T10:31:47.551Z,7.97
2018-05-12T10:36:50.615Z,4.93
2018-05-12T10:41:53.619Z,4.73
2018-05-12T10:46:56.981Z,4.77
2018-05-12T10:52:00.762Z,6.67
2018-05-12T10:57:06.069Z,6.27
2018-05-12T11:02:10.339Z,4.50
2018-05-12T11:07:14.100Z,3.43
2018-05-12T11:12:17.324Z,6.20
2018-05-12T11:17:22.136Z,3.73
2018-05-12T11:22:26.220Z,4.70
2018-05-12T11:27:30.208Z,3.50
2018-05-12T11:32:34.181Z,6.27
2018-05-12T11:37:37.785Z,5.93
2018-05-12T11:42:41.560Z,4.30
2018-05-12T11:47:45.868Z,4.30
2018-05-12T11:52:50.173Z,3.33
2018-05-12T11:57:54.345Z,3.83
2018-05-12T12:02:59.178Z,7.13
2018-05-12T12:08:02.665Z,4.93
2018-05-12T12:13:06.559Z,5.50
2018-05-12T12:18:10.932Z,3.57
2018-05-12T12:23:22.340Z,3.47
2018-05-12T12:28:32.969Z,4.87
2018-05-12T12:33:38.444Z,3.50
2018-05-12T12:38:43.650Z,3.73
2018-05-12T12:43:48.352Z,3.90
2018-05-12T12:48:53.787Z,4.30
2018-05-12T12:53:59.517Z,3.67
2018-05-12T12:59:04.988Z,2.83
2018-05-12T13:04:10.711Z,5.57
2018-05-12T13:09:15.735Z,3.27
2018-05-12T13:14:20.985Z,5.40
2018-05-12T13:19:26.178Z,5.57
2018-05-12T13:24:31.681Z,3.43
2018-05-12T13:29:41.326Z,2.90
2018-05-12T13:34:47.897Z,5.93
2018-05-12T13:39:55.406Z,5.50
2018-05-12T13:45:00.795Z,3.47
2018-05-12T13:50:09.596Z,3.40
2018-05-12T13:55:16.678Z,3.37
2018-05-12T14:00:22.306Z,4.30
2018-05-12T14:05:28.337Z,3.13
2018-05-12T14:10:35.233Z,4.53
2018-05-12T14:15:40.999Z,4.57
2018-05-12T14:20:47.678Z,7.10
2018-05-12T14:25:55.261Z,6.90
2018-05-12T14:31:02.311Z,6.80
2018-05-12T14:36:09.713Z,7.67
2018-05-12T14:41:17.117Z,5.43
2018-05-12T14:46:39.300Z,5.67
2018-05-12T14:51:46.749Z,6.43
2018-05-12T14:56:54.424Z,5.10
2018-05-12T15:02:01.758Z,7.43
2018-05-12T15:07:09.557Z,8.67
2018-05-12T15:12:16.925Z,9.57
2018-05-12T15:17:24.568Z,8.87
2018-05-12T15:22:32.951Z,7.83
2018-05-12T15:27:39.722Z,7.30
2018-05-12T15:32:47.633Z,9.90
2018-05-12T15:37:55.743Z,12.40
2018-05-12T15:43:03.296Z,14.03
2018-05-12T15:48:09.326Z,11.93
2018-05-12T15:53:17.315Z,11.17
2018-05-12T15:58:24.487Z,8.17
2018-05-12T16:03:29.899Z,9.10
2018-05-12T16:08:34.577Z,12.53
2018-05-12T16:13:39.734Z,9.00
2018-05-12T16:18:44.578Z,11.30
2018-05-12T16:23:50.058Z,9.50
2018-05-12T16:28:55.438Z,9.20
2018-05-12T16:34:01.808Z,8.70
2018-05-12T16:39:08.625Z,7.97
2018-05-12T16:44:15.220Z,5.57
2018-05-12T16:49:20.680Z,4.87
2018-05-12T16:54:26.912Z,7.13
2018-05-12T16:59:32.180Z,7.00
2018-05-12T17:04:38.584Z,8.00
2018-05-12T17:09:45.372Z,8.50
2018-05-12T17:14:52.324Z,7.03
2018-05-12T17:19:59.343Z,7.60
2018-05-12T17:25:06.507Z,6.50
2018-05-12T17:30:12.741Z,5.80
2018-05-12T17:35:19.375Z,7.00
2018-05-12T17:40:25.933Z,7.80
2018-05-12T17:45:32.414Z,9.27
2018-05-12T17:50:40.034Z,6.67
2018-05-12T17:55:46.564Z,10.13
2018-05-12T18:00:54.393Z,8.53
2018-05-12T18:06:01.369Z,5.93
2018-05-12T18:11:09.278Z,8.87
2018-05-12T18:16:16.145Z,8.03
2018-05-12T18:21:23.185Z,7.47
2018-05-12T18:26:29.986Z,6.30
2018-05-12T18:31:37.330Z,7.40
2018-05-12T18:36:43.517Z,6.30
2018-05-12T18:41:49.752Z,8.77
2018-05-12T18:46:57.204Z,5.40
2018-05-12T18:52:04.446Z,6.13
2018-05-12T18:57:12.322Z,5.87
2018-05-12T19:02:29.120Z,5.20
2018-05-12T19:07:37.108Z,6.87
2018-05-12T19:12:44.371Z,9.03
2018-05-12T19:17:52.121Z,4.87
2018-05-12T19:23:00.092Z,5.30
2018-05-12T19:28:07.757Z,5.07
2018-05-12T19:33:15.269Z,3.53
2018-05-12T19:38:23.100Z,3.97
2018-05-12T19:43:30.718Z,4.53
2018-05-12T19:48:39.598Z,3.60
2018-05-12T19:53:47.177Z,3.80
2018-05-12T19:58:54.499Z,4.50
2018-05-12T20:04:02.159Z,4.00
2018-05-12T20:09:09.459Z,5.33
2018-05-12T20:14:17.672Z,4.60
2018-05-12T20:19:25.904Z,5.03
2018-05-12T20:24:31.846Z,3.83
2018-05-12T20:29:37.521Z,4.10
2018-05-12T20:34:44.201Z,5.50
2018-05-12T20:39:51.556Z,4.03
2018-05-12T20:44:58.449Z,3.57
2018-05-12T20:50:06.559Z,6.47
2018-05-12T20:55:13.590Z,4.43
2018-05-12T21:00:19.623Z,5.93
2018-05-12T21:05:26.903Z,4.03
2018-05-12T21:10:31.851Z,4.80
2018-05-12T21:15:37.691Z,4.67
2018-05-12T21:20:44.259Z,4.17
2018-05-12T21:25:50.058Z,4.70
2018-05-12T21:30:55.314Z,4.73
2018-05-12T21:35:59.978Z,4.60
2018-05-12T21:41:04.749Z,5.80
2018-05-12T21:46:09.079Z,4.87
2018-05-12T21:51:14.204Z,5.00
2018-05-12T21:56:19.104Z,4.67
2018-05-12T22:01:24.499Z,4.10
2018-05-12T22:06:30.255Z,5.33
2018-05-12T22:11:36.544Z,5.80
2018-05-12T22:16:42.232Z,3.93
2018-05-12T22:21:47.105Z,4.20
2018-05-12T22:26:51.381Z,3.70
2018-05-12T22:31:54.803Z,5.47
2018-05-12T22:36:58.995Z,4.30
2018-05-12T22:42:02.221Z,5.17
2018-05-12T22:47:05.687Z,3.90
2018-05-12T22:52:09.104Z,3.60
2018-05-12T22:57:12.005Z,4.03
2018-05-12T23:02:15.007Z,4.50
2018-05-12T23:07:17.917Z,6.60
2018-05-12T23:12:20.866Z,6.60
2018-05-12T23:17:24.069Z,8.60
2018-05-12T23:22:26.957Z,7.20
2018-05-12T23:27:29.791Z,11.97
2018-05-12T23:32:33.464Z,9.37
2018-05-12T23:37:36.338Z,7.43
2018-05-12T23:42:41.556Z,9.07
2018-05-12T23:47:45.497Z,8.27
2018-05-12T23:52:49.366Z,9.13
2018-05-12T23:57:52.231Z,15.63
